»·PEaware :: N9273T KLAX-KSNA

N9273T :: KLAX-KSNA

FLIGHT INFORMATION

Flight Status: Arrived
Operator: Privately registered:
United States
More flights under this callsign
Pilot: Jim L. (28297)
Aircraft: CESSNA T210 TURBO CENTURION
(T210)
More flights by this aircraft type
Origin: KLAX Los Angeles Intl
United States
Destination: KSNA John Wayne-Orange Co
United States
More flights between these airports :: More routes between these airports
Route: +SLI8 SLI
File this flight plan on PilotEdge
Remarks: TEC route LAXP55
Altitude:
(Current/Filed)
4,000ft
Speed:
(Current/Filed)
140kts
Departed: 21-May-20 05:51 PM
Arrived: 21-May-20 06:28 PM
Distance/Time
Traveled:
31nm/0:37
Distance/Time
To Go:
Arrived

Flight Plot

Page will automatically refresh every two minutes.


Map Options




Map Legend


Flown Route
Filed Route
Departure Airport
Arrival Airport
Navaid (VOR, NDB)
Fix

Horizontal Profiles

Position Reports

Time Latitude Longitude Heading Altitude Ground
Speed
21-May-20 17:26 33.933207 -118.397460 264 129ft 0kts
21-May-20 17:27 33.933207 -118.397460 264 129ft 0kts
21-May-20 17:28 33.933207 -118.397460 264 129ft 0kts
21-May-20 17:29 33.933207 -118.397460 264 129ft 0kts
21-May-20 17:30 33.933207 -118.397460 264 129ft 0kts
21-May-20 17:31 33.933207 -118.397460 264 129ft 0kts
21-May-20 17:32 33.933207 -118.397460 264 129ft 0kts
21-May-20 17:33 33.933207 -118.397460 264 129ft 0kts
21-May-20 17:34 33.933207 -118.397460 264 129ft 0kts
21-May-20 17:35 33.933207 -118.397460 264 129ft 0kts
21-May-20 17:36 33.933207 -118.397460 264 129ft 0kts
21-May-20 17:37 33.933207 -118.397460 264 129ft 0kts
21-May-20 17:38 33.933207 -118.397460 264 129ft 0kts
21-May-20 17:39 33.933207 -118.397460 264 129ft 0kts
21-May-20 17:40 33.933207 -118.397460 264 129ft 0kts
21-May-20 17:41 33.933207 -118.397460 264 129ft 0kts
21-May-20 17:42 33.933207 -118.397460 264 129ft 0kts
21-May-20 17:43 33.933207 -118.397460 264 129ft 0kts
21-May-20 17:44 33.933203 -118.397506 264 129ft 1kts
21-May-20 17:45 33.934749 -118.396721 80 129ft 17kts
21-May-20 17:46 33.935464 -118.389330 83 129ft 25kts
21-May-20 17:47 33.936364 -118.382838 13 129ft 0kts
21-May-20 17:48 33.936364 -118.382838 14 129ft 0kts
21-May-20 17:50 33.937238 -118.383838 261 129ft 20kts
21-May-20 17:51 33.934873 -118.408361 261 1061ft 93kts
21-May-20 17:52 33.929896 -118.438724 255 2622ft 98kts
21-May-20 17:53 33.904513 -118.457682 212 3780ft 114kts
21-May-20 17:54 33.873613 -118.480679 216 4003ft 146kts
21-May-20 17:55 33.837482 -118.506221 213 3997ft 153kts
21-May-20 17:56 33.798303 -118.503319 121 3997ft 165kts
21-May-20 17:57 33.795746 -118.449264 87 3993ft 163kts
21-May-20 17:58 33.794639 -118.394684 88 3997ft 163kts
21-May-20 17:59 33.792933 -118.340037 88 4012ft 163kts
21-May-20 18:00 33.776261 -118.291063 130 4012ft 164kts
21-May-20 18:01 33.737246 -118.272021 180 4006ft 155kts
21-May-20 18:02 33.694035 -118.269244 180 4008ft 155kts
21-May-20 18:03 33.655727 -118.254448 102 4011ft 158kts
21-May-20 18:04 33.676537 -118.212942 46 4004ft 148kts
21-May-20 18:05 33.702585 -118.174258 46 4000ft 148kts
21-May-20 18:05 33.724196 -118.142346 46 3998ft 147kts
21-May-20 18:07 33.754299 -118.097889 46 3994ft 146kts
21-May-20 18:08 33.779990 -118.059895 47 3992ft 146kts
21-May-20 18:08 33.795983 -118.023357 60 3993ft 147kts
21-May-20 18:09 33.814075 -117.978733 61 3993ft 148kts
21-May-20 18:11 33.835598 -117.925224 61 3992ft 154kts
21-May-20 18:11 33.850818 -117.887249 61 3990ft 148kts
21-May-20 18:12 33.868690 -117.842689 61 3990ft 146kts
21-May-20 18:13 33.886127 -117.799115 61 3987ft 140kts
21-May-20 18:14 33.903968 -117.754664 61 3991ft 157kts
21-May-20 18:15 33.926599 -117.709413 27 3993ft 156kts
21-May-20 18:16 33.966299 -117.684640 11 3622ft 169kts
21-May-20 18:17 33.974330 -117.717622 200 3509ft 155kts
21-May-20 18:18 33.931730 -117.708039 190 3502ft 154kts
21-May-20 18:19 33.893459 -117.730090 210 3405ft 154kts
21-May-20 18:20 33.856020 -117.754059 210 3407ft 151kts
21-May-20 18:21 33.817301 -117.778764 210 2893ft 165kts
21-May-20 18:22 33.778941 -117.803379 210 2458ft 160kts
21-May-20 18:23 33.741648 -117.826615 210 1472ft 125kts
21-May-20 18:24 33.716283 -117.843024 210 846ft 87kts
21-May-20 18:25 33.696225 -117.855796 210 418ft 74kts
21-May-20 18:26 33.679110 -117.866665 211 60ft 49kts
21-May-20 18:27 33.676044 -117.870021 295 60ft 6kts
21-May-20 18:28 33.675986 -117.871133 210 60ft 0kts
21-May-20 18:29 33.675986 -117.871133 210 60ft 0kts

Navigation Log

Ident Type
Flight plan parsing failed, navigation log unavailable